sensor_id;sensor_type;location;lat;lon;timestamp;P1;durP1;ratioP1;P2;durP2;ratioP2
64595;SDS011;51003;51.628;6.670;2023-12-07T10:52:08;86.47;;;32.20;;
64595;SDS011;51003;51.628;6.670;2023-12-07T10:58:44;78.45;;;26.58;;
64595;SDS011;51003;51.628;6.670;2023-12-07T11:01:10;70.13;;;27.77;;
64595;SDS011;51003;51.628;6.670;2023-12-07T11:03:37;75.33;;;28.60;;
64595;SDS011;51003;51.628;6.670;2023-12-07T11:06:05;69.47;;;28.13;;
64595;SDS011;51003;51.628;6.670;2023-12-07T11:08:38;57.27;;;26.03;;
64595;SDS011;51003;51.628;6.670;2023-12-07T11:14:02;46.20;;;22.37;;
64595;SDS011;51003;51.628;6.670;2023-12-07T11:16:34;45.40;;;22.30;;
64595;SDS011;51003;51.628;6.670;2023-12-07T11:19:01;43.20;;;20.27;;
64595;SDS011;51003;51.628;6.670;2023-12-07T11:21:29;35.13;;;18.73;;
64595;SDS011;51003;51.628;6.670;2023-12-07T11:23:55;34.33;;;18.03;;
64595;SDS011;51003;51.628;6.670;2023-12-07T11:26:24;33.57;;;17.13;;
64595;SDS011;51003;51.628;6.670;2023-12-07T11:28:51;23.50;;;15.27;;
64595;SDS011;51003;51.628;6.670;2023-12-07T11:31:17;24.23;;;13.70;;
64595;SDS011;51003;51.628;6.670;2023-12-07T11:33:45;25.17;;;11.80;;
64595;SDS011;51003;51.628;6.670;2023-12-07T11:36:12;21.97;;;10.77;;
64595;SDS011;51003;51.628;6.670;2023-12-07T11:38:39;16.57;;;10.00;;
64595;SDS011;51003;51.628;6.670;2023-12-07T11:41:29;16.70;;;10.73;;
64595;SDS011;51003;51.628;6.670;2023-12-07T11:43:58;14.83;;;9.50;;
64595;SDS011;51003;51.628;6.670;2023-12-07T11:46:23;16.03;;;10.10;;
64595;SDS011;51003;51.628;6.670;2023-12-07T11:48:49;20.33;;;9.83;;
64595;SDS011;51003;51.628;6.670;2023-12-07T11:51:15;16.00;;;9.83;;
64595;SDS011;51003;51.628;6.670;2023-12-07T11:53:41;14.50;;;10.07;;
64595;SDS011;51003;51.628;6.670;2023-12-07T11:56:08;20.23;;;10.73;;
64595;SDS011;51003;51.628;6.670;2023-12-07T11:58:35;15.83;;;10.40;;
64595;SDS011;51003;51.628;6.670;2023-12-07T12:01:01;17.83;;;10.90;;
64595;SDS011;51003;51.628;6.670;2023-12-07T12:03:28;17.73;;;11.33;;
64595;SDS011;51003;51.628;6.670;2023-12-07T12:05:54;15.80;;;10.23;;
64595;SDS011;51003;51.628;6.670;2023-12-07T12:08:20;18.03;;;11.30;;
64595;SDS011;51003;51.628;6.670;2023-12-07T12:10:46;17.73;;;10.33;;
64595;SDS011;51003;51.628;6.670;2023-12-07T12:13:12;29.07;;;14.20;;
64595;SDS011;51003;51.628;6.670;2023-12-07T12:15:38;33.70;;;17.37;;
64595;SDS011;51003;51.628;6.670;2023-12-07T12:18:04;56.40;;;23.67;;
64595;SDS011;51003;51.628;6.670;2023-12-07T12:20:31;23.87;;;13.10;;
64595;SDS011;51003;51.628;6.670;2023-12-07T12:22:58;16.63;;;10.47;;
64595;SDS011;51003;51.628;6.670;2023-12-07T12:25:24;17.60;;;11.50;;
64595;SDS011;51003;51.628;6.670;2023-12-07T12:27:53;18.80;;;10.37;;
64595;SDS011;51003;51.628;6.670;2023-12-07T12:30:20;15.07;;;10.17;;
64595;SDS011;51003;51.628;6.670;2023-12-07T12:32:46;17.70;;;10.70;;
64595;SDS011;51003;51.628;6.670;2023-12-07T12:35:12;17.20;;;10.00;;
64595;SDS011;51003;51.628;6.670;2023-12-07T12:37:39;17.80;;;9.87;;
64595;SDS011;51003;51.628;6.670;2023-12-07T12:40:07;18.37;;;10.40;;
64595;SDS011;51003;51.628;6.670;2023-12-07T12:42:34;15.57;;;10.20;;
64595;SDS011;51003;51.628;6.670;2023-12-07T12:45:03;14.60;;;9.33;;
64595;SDS011;51003;51.628;6.670;2023-12-07T12:47:29;18.80;;;11.20;;
64595;SDS011;51003;51.628;6.670;2023-12-07T12:49:54;15.67;;;11.00;;
64595;SDS011;51003;51.628;6.670;2023-12-07T12:52:20;12.77;;;9.73;;
64595;SDS011;51003;51.628;6.670;2023-12-07T12:54:46;15.77;;;10.30;;
64595;SDS011;51003;51.628;6.670;2023-12-07T12:57:14;18.00;;;10.77;;
64595;SDS011;51003;51.628;6.670;2023-12-07T12:59:39;15.60;;;10.10;;
64595;SDS011;51003;51.628;6.670;2023-12-07T13:02:05;13.87;;;10.37;;
64595;SDS011;51003;51.628;6.670;2023-12-07T13:04:31;13.33;;;9.30;;
64595;SDS011;51003;51.628;6.670;2023-12-07T13:06:56;14.50;;;8.90;;
64595;SDS011;51003;51.628;6.670;2023-12-07T13:09:23;13.97;;;9.60;;
64595;SDS011;51003;51.628;6.670;2023-12-07T13:11:49;14.83;;;9.30;;
64595;SDS011;51003;51.628;6.670;2023-12-07T13:14:15;12.67;;;8.93;;
64595;SDS011;51003;51.628;6.670;2023-12-07T13:16:42;13.43;;;9.40;;
64595;SDS011;51003;51.628;6.670;2023-12-07T13:19:08;22.10;;;10.73;;
64595;SDS011;51003;51.628;6.670;2023-12-07T13:21:33;20.10;;;11.50;;
64595;SDS011;51003;51.628;6.670;2023-12-07T13:23:59;16.33;;;10.23;;
64595;SDS011;51003;51.628;6.670;2023-12-07T13:26:25;17.80;;;11.57;;
64595;SDS011;51003;51.628;6.670;2023-12-07T13:28:50;19.53;;;11.30;;
64595;SDS011;51003;51.628;6.670;2023-12-07T13:31:15;20.70;;;12.17;;
64595;SDS011;51003;51.628;6.670;2023-12-07T13:33:41;17.00;;;11.10;;
64595;SDS011;51003;51.628;6.670;2023-12-07T13:36:07;15.10;;;9.57;;
64595;SDS011;51003;51.628;6.670;2023-12-07T13:38:33;16.17;;;10.47;;
64595;SDS011;51003;51.628;6.670;2023-12-07T13:40:59;15.87;;;10.30;;
64595;SDS011;51003;51.628;6.670;2023-12-07T13:43:27;14.70;;;9.63;;
64595;SDS011;51003;51.628;6.670;2023-12-07T13:45:54;15.60;;;9.83;;
64595;SDS011;51003;51.628;6.670;2023-12-07T13:48:20;14.23;;;9.50;;
64595;SDS011;51003;51.628;6.670;2023-12-07T13:50:45;17.37;;;10.20;;
64595;SDS011;51003;51.628;6.670;2023-12-07T13:53:11;15.63;;;10.23;;
64595;SDS011;51003;51.628;6.670;2023-12-07T13:55:37;15.10;;;8.83;;
64595;SDS011;51003;51.628;6.670;2023-12-07T13:58:04;20.93;;;9.50;;
64595;SDS011;51003;51.628;6.670;2023-12-07T14:00:31;20.10;;;9.70;;
64595;SDS011;51003;51.628;6.670;2023-12-07T14:02:57;19.40;;;10.50;;
64595;SDS011;51003;51.628;6.670;2023-12-07T14:05:23;18.03;;;9.83;;
64595;SDS011;51003;51.628;6.670;2023-12-07T14:07:49;15.80;;;9.53;;
64595;SDS011;51003;51.628;6.670;2023-12-07T14:10:15;15.07;;;8.57;;
64595;SDS011;51003;51.628;6.670;2023-12-07T14:12:41;12.73;;;8.73;;
64595;SDS011;51003;51.628;6.670;2023-12-07T14:15:06;12.90;;;8.73;;
64595;SDS011;51003;51.628;6.670;2023-12-07T14:17:34;13.07;;;8.40;;
64595;SDS011;51003;51.628;6.670;2023-12-07T14:20:03;14.57;;;8.50;;
64595;SDS011;51003;51.628;6.670;2023-12-07T14:22:30;12.13;;;8.20;;
64595;SDS011;51003;51.628;6.670;2023-12-07T14:24:55;13.00;;;7.67;;
64595;SDS011;51003;51.628;6.670;2023-12-07T14:27:21;13.70;;;8.10;;
64595;SDS011;51003;51.628;6.670;2023-12-07T14:29:47;15.50;;;8.00;;
64595;SDS011;51003;51.628;6.670;2023-12-07T14:32:13;13.67;;;7.70;;
64595;SDS011;51003;51.628;6.670;2023-12-07T14:34:38;10.50;;;7.20;;
64595;SDS011;51003;51.628;6.670;2023-12-07T14:37:04;13.53;;;7.63;;
64595;SDS011;51003;51.628;6.670;2023-12-07T14:39:30;14.20;;;7.10;;
64595;SDS011;51003;51.628;6.670;2023-12-07T14:41:56;12.03;;;7.50;;
64595;SDS011;51003;51.628;6.670;2023-12-07T14:44:22;15.00;;;7.70;;
64595;SDS011;51003;51.628;6.670;2023-12-07T14:46:48;10.83;;;7.53;;
64595;SDS011;51003;51.628;6.670;2023-12-07T14:49:14;13.20;;;8.73;;
64595;SDS011;51003;51.628;6.670;2023-12-07T14:51:40;14.27;;;8.60;;
64595;SDS011;51003;51.628;6.670;2023-12-07T14:54:06;14.33;;;8.30;;
64595;SDS011;51003;51.628;6.670;2023-12-07T14:56:35;12.97;;;8.73;;
64595;SDS011;51003;51.628;6.670;2023-12-07T14:59:00;15.30;;;8.73;;
64595;SDS011;51003;51.628;6.670;2023-12-07T15:01:26;12.03;;;7.97;;
64595;SDS011;51003;51.628;6.670;2023-12-07T15:03:52;16.93;;;8.40;;
64595;SDS011;51003;51.628;6.670;2023-12-07T15:06:17;11.30;;;7.77;;
64595;SDS011;51003;51.628;6.670;2023-12-07T15:08:43;15.03;;;8.17;;
64595;SDS011;51003;51.628;6.670;2023-12-07T15:11:10;14.73;;;7.60;;
64595;SDS011;51003;51.628;6.670;2023-12-07T15:13:36;13.57;;;7.53;;
64595;SDS011;51003;51.628;6.670;2023-12-07T15:16:02;13.67;;;8.17;;
64595;SDS011;51003;51.628;6.670;2023-12-07T15:18:29;15.20;;;8.13;;
64595;SDS011;51003;51.628;6.670;2023-12-07T15:20:56;12.93;;;8.10;;
64595;SDS011;51003;51.628;6.670;2023-12-07T15:23:22;13.20;;;7.77;;
64595;SDS011;51003;51.628;6.670;2023-12-07T15:25:50;14.23;;;8.00;;
64595;SDS011;51003;51.628;6.670;2023-12-07T15:28:15;14.47;;;8.67;;
64595;SDS011;51003;51.628;6.670;2023-12-07T15:30:40;13.60;;;7.77;;
64595;SDS011;51003;51.628;6.670;2023-12-07T15:33:06;11.83;;;7.10;;
64595;SDS011;51003;51.628;6.670;2023-12-07T15:35:32;12.97;;;7.87;;
64595;SDS011;51003;51.628;6.670;2023-12-07T15:37:58;15.57;;;8.60;;
64595;SDS011;51003;51.628;6.670;2023-12-07T15:40:24;26.07;;;11.47;;
64595;SDS011;51003;51.628;6.670;2023-12-07T15:42:49;18.57;;;10.40;;
64595;SDS011;51003;51.628;6.670;2023-12-07T15:45:14;20.87;;;10.90;;
64595;SDS011;51003;51.628;6.670;2023-12-07T15:47:40;19.80;;;9.57;;
64595;SDS011;51003;51.628;6.670;2023-12-07T15:50:05;16.03;;;9.40;;
64595;SDS011;51003;51.628;6.670;2023-12-07T15:52:31;16.37;;;9.00;;
64595;SDS011;51003;51.628;6.670;2023-12-07T15:54:58;13.07;;;8.30;;
64595;SDS011;51003;51.628;6.670;2023-12-07T15:57:24;22.90;;;12.00;;
64595;SDS011;51003;51.628;6.670;2023-12-07T15:59:50;18.53;;;10.63;;
64595;SDS011;51003;51.628;6.670;2023-12-07T16:02:15;14.33;;;8.80;;
64595;SDS011;51003;51.628;6.670;2023-12-07T16:04:41;25.70;;;9.03;;
64595;SDS011;51003;51.628;6.670;2023-12-07T16:07:07;18.13;;;10.77;;
64595;SDS011;51003;51.628;6.670;2023-12-07T16:09:34;29.30;;;10.17;;
64595;SDS011;51003;51.628;6.670;2023-12-07T16:12:00;17.17;;;9.20;;
64595;SDS011;51003;51.628;6.670;2023-12-07T16:14:26;15.93;;;9.00;;
64595;SDS011;51003;51.628;6.670;2023-12-07T16:16:52;14.20;;;8.97;;
64595;SDS011;51003;51.628;6.670;2023-12-07T16:19:18;20.43;;;8.40;;
64595;SDS011;51003;51.628;6.670;2023-12-07T16:21:44;18.97;;;8.13;;
64595;SDS011;51003;51.628;6.670;2023-12-07T16:24:12;16.27;;;9.47;;
64595;SDS011;51003;51.628;6.670;2023-12-07T16:26:38;16.40;;;9.80;;
64595;SDS011;51003;51.628;6.670;2023-12-07T16:29:04;21.67;;;10.53;;
64595;SDS011;51003;51.628;6.670;2023-12-07T16:31:29;20.40;;;10.90;;
64595;SDS011;51003;51.628;6.670;2023-12-07T16:33:55;13.33;;;8.47;;
64595;SDS011;51003;51.628;6.670;2023-12-07T16:36:21;17.10;;;9.00;;
64595;SDS011;51003;51.628;6.670;2023-12-07T16:38:48;19.23;;;9.70;;
64595;SDS011;51003;51.628;6.670;2023-12-07T16:41:14;16.83;;;9.70;;
64595;SDS011;51003;51.628;6.670;2023-12-07T16:43:40;16.23;;;9.27;;
64595;SDS011;51003;51.628;6.670;2023-12-07T16:46:06;21.43;;;9.70;;
64595;SDS011;51003;51.628;6.670;2023-12-07T16:48:35;16.23;;;9.50;;
64595;SDS011;51003;51.628;6.670;2023-12-07T16:51:01;12.70;;;8.53;;
64595;SDS011;51003;51.628;6.670;2023-12-07T16:53:28;15.03;;;8.10;;
64595;SDS011;51003;51.628;6.670;2023-12-07T16:55:56;20.30;;;8.57;;
64595;SDS011;51003;51.628;6.670;2023-12-07T16:58:22;14.70;;;8.83;;
64595;SDS011;51003;51.628;6.670;2023-12-07T17:00:48;19.77;;;8.07;;
64595;SDS011;51003;51.628;6.670;2023-12-07T17:03:14;12.03;;;7.20;;
64595;SDS011;51003;51.628;6.670;2023-12-07T17:05:42;13.10;;;6.93;;
64595;SDS011;51003;51.628;6.670;2023-12-07T17:08:09;16.03;;;7.93;;
64595;SDS011;51003;51.628;6.670;2023-12-07T17:10:35;12.30;;;7.07;;
64595;SDS011;51003;51.628;6.670;2023-12-07T17:13:01;13.60;;;7.40;;
64595;SDS011;51003;51.628;6.670;2023-12-07T17:15:26;11.87;;;7.13;;
64595;SDS011;51003;51.628;6.670;2023-12-07T17:17:52;12.02;;;7.10;;
64595;SDS011;51003;51.628;6.670;2023-12-07T17:20:18;15.83;;;7.60;;
64595;SDS011;51003;51.628;6.670;2023-12-07T17:22:43;13.10;;;7.90;;
64595;SDS011;51003;51.628;6.670;2023-12-07T17:25:09;15.40;;;8.60;;
64595;SDS011;51003;51.628;6.670;2023-12-07T17:27:35;18.10;;;10.10;;
64595;SDS011;51003;51.628;6.670;2023-12-07T17:30:01;19.00;;;10.67;;
64595;SDS011;51003;51.628;6.670;2023-12-07T17:32:28;15.50;;;9.77;;
64595;SDS011;51003;51.628;6.670;2023-12-07T17:34:54;19.13;;;10.07;;
64595;SDS011;51003;51.628;6.670;2023-12-07T17:37:19;13.63;;;8.33;;
64595;SDS011;51003;51.628;6.670;2023-12-07T17:39:46;14.37;;;9.10;;
64595;SDS011;51003;51.628;6.670;2023-12-07T17:42:12;17.50;;;9.53;;
64595;SDS011;51003;51.628;6.670;2023-12-07T17:44:37;16.20;;;8.70;;
64595;SDS011;51003;51.628;6.670;2023-12-07T17:47:03;16.27;;;9.43;;
64595;SDS011;51003;51.628;6.670;2023-12-07T17:49:30;19.03;;;10.57;;
64595;SDS011;51003;51.628;6.670;2023-12-07T17:51:56;16.83;;;11.57;;
64595;SDS011;51003;51.628;6.670;2023-12-07T17:54:21;17.23;;;10.13;;
64595;SDS011;51003;51.628;6.670;2023-12-07T17:56:49;16.60;;;9.55;;
64595;SDS011;51003;51.628;6.670;2023-12-07T17:59:15;15.23;;;9.70;;
64595;SDS011;51003;51.628;6.670;2023-12-07T18:01:41;14.70;;;8.40;;
64595;SDS011;51003;51.628;6.670;2023-12-07T18:04:07;11.90;;;7.83;;
64595;SDS011;51003;51.628;6.670;2023-12-07T18:06:33;12.07;;;7.50;;
64595;SDS011;51003;51.628;6.670;2023-12-07T18:08:59;13.00;;;7.23;;
64595;SDS011;51003;51.628;6.670;2023-12-07T18:11:25;13.13;;;7.87;;
